TimeEDT,TemperatureF,Dew PointF,Humidity,Sea Level PressureIn,VisibilityMPH,Wind Direction,Wind SpeedMPH,Gust SpeedMPH,PrecipitationIn,Events,Conditions,WindDirDegrees,DateUTC
12:53 AM,57.9,55.9,93,29.91,7.0,Calm,Calm,-,N/A,,Clear,0,2013-09-05 04:53:00
1:53 AM,55.9,55.0,97,29.89,1.5,Calm,Calm,-,N/A,,Clear,0,2013-09-05 05:53:00
2:05 AM,55.4,55.4,100,29.89,0.8,Calm,Calm,-,N/A,,Clear,0,2013-09-05 06:05:00
2:21 AM,55.4,53.6,94,29.89,2.0,Calm,Calm,-,N/A,,Clear,0,2013-09-05 06:21:00
2:39 AM,55.4,53.6,94,29.89,7.0,Calm,Calm,-,N/A,,Clear,0,2013-09-05 06:39:00
2:53 AM,57.0,55.0,93,29.89,2.0,Calm,Calm,-,N/A,,Clear,0,2013-09-05 06:53:00
3:03 AM,57.2,55.4,94,29.89,10.0,Calm,Calm,-,N/A,,Clear,0,2013-09-05 07:03:00
3:53 AM,57.0,55.0,93,29.88,9.0,Calm,Calm,-,N/A,,Partly Cloudy,0,2013-09-05 07:53:00
4:53 AM,57.9,55.9,93,29.87,10.0,Calm,Calm,-,N/A,,Scattered Clouds,0,2013-09-05 08:53:00
5:53 AM,57.9,57.0,97,29.89,10.0,Calm,Calm,-,N/A,,Mostly Cloudy,0,2013-09-05 09:53:00
6:53 AM,60.1,57.9,93,29.89,10.0,East,3.5,-,N/A,,Overcast,100,2013-09-05 10:53:00
7:53 AM,64.0,59.0,84,29.91,10.0,Calm,Calm,-,N/A,,Overcast,0,2013-09-05 11:53:00
8:53 AM,64.0,60.1,87,29.92,4.0,Calm,Calm,-,0.01,Rain,Light Rain,0,2013-09-05 12:53:00
9:53 AM,64.9,61.0,87,29.94,7.0,Calm,Calm,-,0.05,Rain,Light Rain,0,2013-09-05 13:53:00
10:53 AM,66.9,59.0,76,29.95,10.0,North,8.1,-,0.00,,Scattered Clouds,360,2013-09-05 14:53:00
11:53 AM,69.1,60.1,73,29.96,10.0,NNW,9.2,16.1,N/A,,Clear,340,2013-09-05 15:53:00
12:17 PM,66.2,59.0,78,29.97,10.0,ENE,12.7,-,N/A,,Mostly Cloudy,60,2013-09-05 16:17:00
12:40 PM,66.2,59.0,78,29.97,10.0,NE,9.2,-,N/A,,Mostly Cloudy,50,2013-09-05 16:40:00
12:53 PM,66.0,57.0,73,29.97,10.0,NE,11.5,-,N/A,,Mostly Cloudy,50,2013-09-05 16:53:00
1:53 PM,69.1,57.0,65,29.97,10.0,NNE,6.9,-,N/A,,Mostly Cloudy,20,2013-09-05 17:53:00
2:53 PM,66.0,57.0,73,29.98,10.0,ENE,6.9,-,N/A,,Scattered Clouds,70,2013-09-05 18:53:00
3:02 PM,66.2,57.2,73,29.98,10.0,ENE,6.9,-,N/A,,Mostly Cloudy,70,2013-09-05 19:02:00
3:29 PM,66.2,55.4,68,29.99,10.0,East,5.8,-,N/A,,Scattered Clouds,100,2013-09-05 19:29:00
3:53 PM,66.0,55.9,70,29.99,10.0,ENE,5.8,-,N/A,,Partly Cloudy,70,2013-09-05 19:53:00
4:53 PM,66.9,55.9,68,30.00,10.0,Variable,4.6,-,N/A,,Partly Cloudy,0,2013-09-05 20:53:00
5:53 PM,66.0,54.0,65,30.01,10.0,ESE,3.5,-,N/A,,Clear,110,2013-09-05 21:53:00
6:53 PM,63.0,54.0,72,30.03,10.0,Calm,Calm,-,N/A,,Mostly Cloudy,0,2013-09-05 22:53:00
7:53 PM,57.0,54.0,89,30.06,10.0,Calm,Calm,-,N/A,,Partly Cloudy,0,2013-09-05 23:53:00
8:53 PM,54.0,52.0,93,30.09,10.0,Calm,Calm,-,N/A,,Clear,0,2013-09-06 00:53:00
9:35 PM,51.8,48.2,88,30.10,10.0,Calm,Calm,-,N/A,,Partly Cloudy,0,2013-09-06 01:35:00
9:53 PM,52.0,50.0,93,30.11,0.8,Calm,Calm,-,N/A,,Mist,0,2013-09-06 01:53:00
10:08 PM,51.8,50.0,94,30.11,1.5,Calm,Calm,-,N/A,,Scattered Clouds,0,2013-09-06 02:08:00
10:11 PM,51.8,50.0,94,30.11,3.0,Calm,Calm,-,N/A,,Partly Cloudy,0,2013-09-06 02:11:00
10:21 PM,48.2,48.2,100,30.12,2.5,Calm,Calm,-,N/A,,Scattered Clouds,0,2013-09-06 02:21:00
10:27 PM,48.2,48.2,100,30.11,0.8,Calm,Calm,-,N/A,,Mist,0,2013-09-06 02:27:00
10:53 PM,50.0,48.9,96,30.13,1.0,Calm,Calm,-,N/A,,Mist,0,2013-09-06 02:53:00
11:00 PM,50.0,48.2,94,30.13,3.0,Calm,Calm,-,N/A,,Mostly Cloudy,0,2013-09-06 03:00:00
11:07 PM,48.2,46.4,93,30.13,2.0,Calm,Calm,-,N/A,,Scattered Clouds,0,2013-09-06 03:07:00
11:09 PM,48.2,46.4,93,30.13,0.8,Calm,Calm,-,N/A,,Mist,0,2013-09-06 03:09:00
11:47 PM,48.2,46.4,93,30.14,2.0,Calm,Calm,-,N/A,,Mostly Cloudy,0,2013-09-06 03:47:00
11:53 PM,48.0,46.9,96,30.14,10.0,Calm,Calm,-,N/A,,Scattered Clouds,0,2013-09-06 03:53:00